sensor_id;sensor_type;location;lat;lon;timestamp;P1;durP1;ratioP1;P2;durP2;ratioP2
13981;SDS011;7065;50.880;5.502;2022-11-06T00:00:41;5.53;;;2.45;;
13981;SDS011;7065;50.880;5.502;2022-11-06T00:03:07;5.00;;;2.58;;
13981;SDS011;7065;50.880;5.502;2022-11-06T00:05:34;8.25;;;2.38;;
13981;SDS011;7065;50.880;5.502;2022-11-06T00:08:30;8.65;;;2.88;;
13981;SDS011;7065;50.880;5.502;2022-11-06T00:10:58;8.68;;;2.90;;
13981;SDS011;7065;50.880;5.502;2022-11-06T00:13:24;6.93;;;2.33;;
13981;SDS011;7065;50.880;5.502;2022-11-06T00:15:50;5.55;;;2.30;;
13981;SDS011;7065;50.880;5.502;2022-11-06T00:18:15;8.57;;;3.00;;
13981;SDS011;7065;50.880;5.502;2022-11-06T00:20:41;6.85;;;2.58;;
13981;SDS011;7065;50.880;5.502;2022-11-06T00:23:08;8.00;;;2.47;;
13981;SDS011;7065;50.880;5.502;2022-11-06T00:25:33;6.13;;;2.50;;
13981;SDS011;7065;50.880;5.502;2022-11-06T00:28:03;7.53;;;2.65;;
13981;SDS011;7065;50.880;5.502;2022-11-06T00:30:29;5.65;;;2.65;;
13981;SDS011;7065;50.880;5.502;2022-11-06T00:32:54;5.75;;;2.22;;
13981;SDS011;7065;50.880;5.502;2022-11-06T00:35:20;7.35;;;2.55;;
13981;SDS011;7065;50.880;5.502;2022-11-06T00:37:46;10.10;;;2.83;;
13981;SDS011;7065;50.880;5.502;2022-11-06T00:40:11;6.22;;;2.30;;
13981;SDS011;7065;50.880;5.502;2022-11-06T00:42:37;8.52;;;2.97;;
13981;SDS011;7065;50.880;5.502;2022-11-06T00:45:04;10.27;;;2.75;;
13981;SDS011;7065;50.880;5.502;2022-11-06T00:47:30;8.68;;;2.60;;
13981;SDS011;7065;50.880;5.502;2022-11-06T00:49:56;6.78;;;2.85;;
13981;SDS011;7065;50.880;5.502;2022-11-06T00:52:21;6.18;;;2.28;;
13981;SDS011;7065;50.880;5.502;2022-11-06T00:54:47;8.68;;;2.65;;
13981;SDS011;7065;50.880;5.502;2022-11-06T00:57:12;5.60;;;2.20;;
13981;SDS011;7065;50.880;5.502;2022-11-06T00:59:38;6.30;;;1.80;;
13981;SDS011;7065;50.880;5.502;2022-11-06T01:02:04;9.70;;;2.30;;
13981;SDS011;7065;50.880;5.502;2022-11-06T01:04:29;8.75;;;2.35;;
13981;SDS011;7065;50.880;5.502;2022-11-06T01:06:55;8.40;;;2.60;;
13981;SDS011;7065;50.880;5.502;2022-11-06T01:09:21;6.65;;;2.20;;
13981;SDS011;7065;50.880;5.502;2022-11-06T01:11:52;7.47;;;3.38;;
13981;SDS011;7065;50.880;5.502;2022-11-06T01:14:22;5.90;;;2.30;;
13981;SDS011;7065;50.880;5.502;2022-11-06T01:16:48;5.03;;;2.30;;
13981;SDS011;7065;50.880;5.502;2022-11-06T01:19:15;9.30;;;2.67;;
13981;SDS011;7065;50.880;5.502;2022-11-06T01:21:43;6.32;;;2.72;;
13981;SDS011;7065;50.880;5.502;2022-11-06T01:24:14;7.20;;;2.63;;
13981;SDS011;7065;50.880;5.502;2022-11-06T01:26:41;7.18;;;2.47;;
13981;SDS011;7065;50.880;5.502;2022-11-06T01:29:09;8.93;;;2.92;;
13981;SDS011;7065;50.880;5.502;2022-11-06T01:31:36;9.13;;;2.80;;
13981;SDS011;7065;50.880;5.502;2022-11-06T01:34:02;5.03;;;2.33;;
13981;SDS011;7065;50.880;5.502;2022-11-06T01:36:29;6.22;;;2.20;;
13981;SDS011;7065;50.880;5.502;2022-11-06T01:38:55;8.13;;;2.20;;
13981;SDS011;7065;50.880;5.502;2022-11-06T01:41:29;5.55;;;2.40;;
13981;SDS011;7065;50.880;5.502;2022-11-06T01:44:05;6.70;;;2.28;;
13981;SDS011;7065;50.880;5.502;2022-11-06T01:46:51;6.88;;;2.40;;
13981;SDS011;7065;50.880;5.502;2022-11-06T01:49:16;7.00;;;2.40;;
13981;SDS011;7065;50.880;5.502;2022-11-06T01:51:48;10.18;;;2.42;;
13981;SDS011;7065;50.880;5.502;2022-11-06T01:54:18;7.55;;;2.47;;
13981;SDS011;7065;50.880;5.502;2022-11-06T01:56:46;5.85;;;2.30;;
13981;SDS011;7065;50.880;5.502;2022-11-06T01:59:15;4.38;;;2.40;;
13981;SDS011;7065;50.880;5.502;2022-11-06T02:01:43;7.07;;;2.47;;
13981;SDS011;7065;50.880;5.502;2022-11-06T02:04:14;6.65;;;3.00;;
13981;SDS011;7065;50.880;5.502;2022-11-06T02:06:45;5.78;;;2.58;;
13981;SDS011;7065;50.880;5.502;2022-11-06T02:09:12;7.47;;;2.50;;
13981;SDS011;7065;50.880;5.502;2022-11-06T02:11:39;7.03;;;2.90;;
13981;SDS011;7065;50.880;5.502;2022-11-06T02:22:33;6.15;;;2.55;;
13981;SDS011;7065;50.880;5.502;2022-11-06T02:31:14;9.23;;;3.08;;
13981;SDS011;7065;50.880;5.502;2022-11-06T02:33:49;8.65;;;3.50;;
13981;SDS011;7065;50.880;5.502;2022-11-06T02:36:21;6.82;;;2.67;;
13981;SDS011;7065;50.880;5.502;2022-11-06T02:38:54;7.22;;;2.80;;
13981;SDS011;7065;50.880;5.502;2022-11-06T02:41:24;8.43;;;3.20;;
13981;SDS011;7065;50.880;5.502;2022-11-06T02:43:56;11.35;;;3.17;;
13981;SDS011;7065;50.880;5.502;2022-11-06T02:46:31;6.68;;;2.75;;
13981;SDS011;7065;50.880;5.502;2022-11-06T02:49:05;8.85;;;2.88;;
13981;SDS011;7065;50.880;5.502;2022-11-06T02:51:35;8.90;;;2.90;;
13981;SDS011;7065;50.880;5.502;2022-11-06T02:54:06;9.68;;;3.30;;
13981;SDS011;7065;50.880;5.502;2022-11-06T02:56:36;8.07;;;2.90;;
13981;SDS011;7065;50.880;5.502;2022-11-06T02:59:08;6.05;;;2.75;;
13981;SDS011;7065;50.880;5.502;2022-11-06T03:02:02;6.50;;;2.58;;
13981;SDS011;7065;50.880;5.502;2022-11-06T03:07:18;4.38;;;3.10;;
13981;SDS011;7065;50.880;5.502;2022-11-06T03:09:56;3.25;;;2.40;;
13981;SDS011;7065;50.880;5.502;2022-11-06T03:12:32;8.65;;;2.70;;
13981;SDS011;7065;50.880;5.502;2022-11-06T03:20:41;6.38;;;2.35;;
13981;SDS011;7065;50.880;5.502;2022-11-06T03:23:17;5.00;;;2.45;;
13981;SDS011;7065;50.880;5.502;2022-11-06T03:25:53;9.07;;;2.70;;
13981;SDS011;7065;50.880;5.502;2022-11-06T03:28:47;7.78;;;3.05;;
13981;SDS011;7065;50.880;5.502;2022-11-06T03:31:54;6.93;;;2.88;;
13981;SDS011;7065;50.880;5.502;2022-11-06T03:34:26;5.40;;;2.30;;
13981;SDS011;7065;50.880;5.502;2022-11-06T03:36:58;6.97;;;2.55;;
13981;SDS011;7065;50.880;5.502;2022-11-06T03:39:30;6.88;;;2.85;;
13981;SDS011;7065;50.880;5.502;2022-11-06T03:42:09;6.95;;;2.40;;
13981;SDS011;7065;50.880;5.502;2022-11-06T03:44:39;6.25;;;2.53;;
13981;SDS011;7065;50.880;5.502;2022-11-06T03:47:15;7.25;;;2.60;;
13981;SDS011;7065;50.880;5.502;2022-11-06T03:49:56;7.72;;;2.40;;
13981;SDS011;7065;50.880;5.502;2022-11-06T03:52:28;6.05;;;2.72;;
13981;SDS011;7065;50.880;5.502;2022-11-06T03:55:09;6.45;;;2.65;;
13981;SDS011;7065;50.880;5.502;2022-11-06T03:57:52;7.97;;;2.83;;
13981;SDS011;7065;50.880;5.502;2022-11-06T04:00:21;6.43;;;2.67;;
13981;SDS011;7065;50.880;5.502;2022-11-06T04:02:49;8.75;;;2.50;;
13981;SDS011;7065;50.880;5.502;2022-11-06T04:05:29;8.63;;;2.58;;
13981;SDS011;7065;50.880;5.502;2022-11-06T04:08:00;8.48;;;2.63;;
13981;SDS011;7065;50.880;5.502;2022-11-06T04:10:49;6.97;;;2.40;;
13981;SDS011;7065;50.880;5.502;2022-11-06T04:13:36;6.00;;;2.53;;
13981;SDS011;7065;50.880;5.502;2022-11-06T04:16:23;7.57;;;2.88;;
13981;SDS011;7065;50.880;5.502;2022-11-06T04:18:50;6.65;;;2.65;;
13981;SDS011;7065;50.880;5.502;2022-11-06T04:21:39;6.50;;;2.58;;
13981;SDS011;7065;50.880;5.502;2022-11-06T04:35:42;6.60;;;2.20;;
13981;SDS011;7065;50.880;5.502;2022-11-06T04:41:17;8.43;;;3.05;;
13981;SDS011;7065;50.880;5.502;2022-11-06T04:43:46;4.82;;;2.40;;
13981;SDS011;7065;50.880;5.502;2022-11-06T04:46:28;6.53;;;2.85;;
13981;SDS011;7065;50.880;5.502;2022-11-06T04:48:58;6.47;;;2.55;;
13981;SDS011;7065;50.880;5.502;2022-11-06T04:51:27;6.90;;;2.40;;
13981;SDS011;7065;50.880;5.502;2022-11-06T04:53:56;5.53;;;2.30;;
13981;SDS011;7065;50.880;5.502;2022-11-06T04:56:25;3.83;;;1.95;;
13981;SDS011;7065;50.880;5.502;2022-11-06T04:58:54;5.53;;;1.98;;
13981;SDS011;7065;50.880;5.502;2022-11-06T05:01:20;6.22;;;2.53;;
13981;SDS011;7065;50.880;5.502;2022-11-06T05:03:46;6.63;;;2.50;;
13981;SDS011;7065;50.880;5.502;2022-11-06T05:06:12;6.70;;;2.30;;
13981;SDS011;7065;50.880;5.502;2022-11-06T05:08:38;4.85;;;2.42;;
13981;SDS011;7065;50.880;5.502;2022-11-06T05:11:03;5.13;;;2.10;;
13981;SDS011;7065;50.880;5.502;2022-11-06T05:13:30;9.15;;;2.40;;
13981;SDS011;7065;50.880;5.502;2022-11-06T05:15:56;7.47;;;2.03;;
13981;SDS011;7065;50.880;5.502;2022-11-06T05:18:23;8.40;;;2.20;;
13981;SDS011;7065;50.880;5.502;2022-11-06T05:20:49;3.50;;;1.98;;
13981;SDS011;7065;50.880;5.502;2022-11-06T05:23:38;6.75;;;2.03;;
13981;SDS011;7065;50.880;5.502;2022-11-06T05:26:04;3.05;;;1.67;;
13981;SDS011;7065;50.880;5.502;2022-11-06T05:28:31;6.70;;;2.22;;
13981;SDS011;7065;50.880;5.502;2022-11-06T05:30:57;5.20;;;1.98;;
13981;SDS011;7065;50.880;5.502;2022-11-06T05:33:22;8.85;;;2.45;;
13981;SDS011;7065;50.880;5.502;2022-11-06T05:35:49;4.80;;;2.20;;
13981;SDS011;7065;50.880;5.502;2022-11-06T05:38:15;5.38;;;2.40;;
13981;SDS011;7065;50.880;5.502;2022-11-06T05:40:40;6.05;;;2.03;;
13981;SDS011;7065;50.880;5.502;2022-11-06T05:43:07;4.05;;;2.00;;
13981;SDS011;7065;50.880;5.502;2022-11-06T05:45:32;7.68;;;2.25;;
13981;SDS011;7065;50.880;5.502;2022-11-06T05:47:58;4.28;;;1.73;;
13981;SDS011;7065;50.880;5.502;2022-11-06T05:50:24;5.28;;;1.80;;
13981;SDS011;7065;50.880;5.502;2022-11-06T05:52:49;5.50;;;1.98;;
13981;SDS011;7065;50.880;5.502;2022-11-06T05:55:15;8.07;;;2.55;;
13981;SDS011;7065;50.880;5.502;2022-11-06T05:57:41;5.15;;;2.22;;
13981;SDS011;7065;50.880;5.502;2022-11-06T06:00:07;6.40;;;2.50;;
13981;SDS011;7065;50.880;5.502;2022-11-06T06:02:35;3.80;;;2.28;;
13981;SDS011;7065;50.880;5.502;2022-11-06T06:05:02;6.15;;;2.00;;
13981;SDS011;7065;50.880;5.502;2022-11-06T06:07:28;5.07;;;2.38;;
13981;SDS011;7065;50.880;5.502;2022-11-06T06:09:54;7.78;;;1.95;;
13981;SDS011;7065;50.880;5.502;2022-11-06T06:12:20;6.22;;;2.20;;
13981;SDS011;7065;50.880;5.502;2022-11-06T06:14:47;6.60;;;2.20;;
13981;SDS011;7065;50.880;5.502;2022-11-06T06:17:13;7.57;;;1.92;;
13981;SDS011;7065;50.880;5.502;2022-11-06T06:19:39;3.92;;;1.80;;
13981;SDS011;7065;50.880;5.502;2022-11-06T06:22:05;5.25;;;2.22;;
13981;SDS011;7065;50.880;5.502;2022-11-06T06:24:32;5.32;;;1.98;;
13981;SDS011;7065;50.880;5.502;2022-11-06T06:26:57;3.85;;;2.05;;
13981;SDS011;7065;50.880;5.502;2022-11-06T06:29:23;7.82;;;2.15;;
13981;SDS011;7065;50.880;5.502;2022-11-06T06:31:49;5.45;;;2.50;;
13981;SDS011;7065;50.880;5.502;2022-11-06T06:34:14;6.35;;;2.10;;
13981;SDS011;7065;50.880;5.502;2022-11-06T06:36:40;6.20;;;2.13;;
13981;SDS011;7065;50.880;5.502;2022-11-06T06:39:06;5.65;;;2.20;;
13981;SDS011;7065;50.880;5.502;2022-11-06T06:41:31;4.45;;;2.33;;
13981;SDS011;7065;50.880;5.502;2022-11-06T06:43:57;8.07;;;1.92;;
13981;SDS011;7065;50.880;5.502;2022-11-06T06:46:23;4.47;;;1.63;;
13981;SDS011;7065;50.880;5.502;2022-11-06T06:48:48;5.55;;;2.10;;
13981;SDS011;7065;50.880;5.502;2022-11-06T06:51:14;4.68;;;2.00;;
13981;SDS011;7065;50.880;5.502;2022-11-06T06:53:40;6.57;;;2.00;;
13981;SDS011;7065;50.880;5.502;2022-11-06T06:56:06;4.03;;;1.98;;
13981;SDS011;7065;50.880;5.502;2022-11-06T06:58:32;6.30;;;2.30;;
13981;SDS011;7065;50.880;5.502;2022-11-06T07:01:02;4.70;;;1.92;;
13981;SDS011;7065;50.880;5.502;2022-11-06T07:03:29;3.40;;;1.83;;
13981;SDS011;7065;50.880;5.502;2022-11-06T07:05:59;5.22;;;1.73;;
13981;SDS011;7065;50.880;5.502;2022-11-06T07:08:25;5.90;;;2.08;;
13981;SDS011;7065;50.880;5.502;2022-11-06T07:10:52;6.40;;;2.33;;
13981;SDS011;7065;50.880;5.502;2022-11-06T07:13:21;3.35;;;1.58;;
13981;SDS011;7065;50.880;5.502;2022-11-06T07:15:47;4.30;;;1.90;;
13981;SDS011;7065;50.880;5.502;2022-11-06T07:18:13;4.10;;;1.70;;
13981;SDS011;7065;50.880;5.502;2022-11-06T07:20:38;4.47;;;2.00;;
13981;SDS011;7065;50.880;5.502;2022-11-06T07:23:05;5.13;;;1.92;;
13981;SDS011;7065;50.880;5.502;2022-11-06T07:25:31;3.25;;;1.80;;
13981;SDS011;7065;50.880;5.502;2022-11-06T07:28:00;3.28;;;1.67;;
13981;SDS011;7065;50.880;5.502;2022-11-06T07:30:30;4.25;;;2.10;;
13981;SDS011;7065;50.880;5.502;2022-11-06T07:32:58;2.88;;;1.80;;
13981;SDS011;7065;50.880;5.502;2022-11-06T07:35:24;4.60;;;1.70;;
13981;SDS011;7065;50.880;5.502;2022-11-06T07:37:51;5.38;;;1.60;;
13981;SDS011;7065;50.880;5.502;2022-11-06T07:40:16;3.95;;;1.50;;
13981;SDS011;7065;50.880;5.502;2022-11-06T07:42:42;3.15;;;1.50;;
13981;SDS011;7065;50.880;5.502;2022-11-06T07:45:08;4.63;;;1.67;;
13981;SDS011;7065;50.880;5.502;2022-11-06T07:47:34;5.82;;;2.15;;
13981;SDS011;7065;50.880;5.502;2022-11-06T07:49:59;4.72;;;1.85;;
13981;SDS011;7065;50.880;5.502;2022-11-06T07:52:25;3.78;;;1.92;;
13981;SDS011;7065;50.880;5.502;2022-11-06T07:54:51;3.38;;;1.60;;
13981;SDS011;7065;50.880;5.502;2022-11-06T07:57:17;4.35;;;1.38;;
13981;SDS011;7065;50.880;5.502;2022-11-06T07:59:43;5.53;;;1.70;;
13981;SDS011;7065;50.880;5.502;2022-11-06T08:02:12;4.53;;;1.50;;
13981;SDS011;7065;50.880;5.502;2022-11-06T08:04:38;4.65;;;2.05;;
13981;SDS011;7065;50.880;5.502;2022-11-06T08:07:04;5.10;;;1.60;;
13981;SDS011;7065;50.880;5.502;2022-11-06T08:09:30;5.55;;;1.77;;
13981;SDS011;7065;50.880;5.502;2022-11-06T08:11:56;4.72;;;1.95;;
13981;SDS011;7065;50.880;5.502;2022-11-06T08:14:22;6.00;;;1.83;;
13981;SDS011;7065;50.880;5.502;2022-11-06T08:16:47;5.35;;;1.80;;
13981;SDS011;7065;50.880;5.502;2022-11-06T08:19:13;6.07;;;1.60;;
13981;SDS011;7065;50.880;5.502;2022-11-06T08:21:39;3.55;;;1.80;;
13981;SDS011;7065;50.880;5.502;2022-11-06T08:24:05;6.70;;;2.13;;
13981;SDS011;7065;50.880;5.502;2022-11-06T08:26:31;4.32;;;1.70;;
13981;SDS011;7065;50.880;5.502;2022-11-06T08:28:57;6.47;;;2.00;;
13981;SDS011;7065;50.880;5.502;2022-11-06T08:31:23;4.72;;;1.90;;
13981;SDS011;7065;50.880;5.502;2022-11-06T08:33:49;5.20;;;1.60;;
13981;SDS011;7065;50.880;5.502;2022-11-06T08:36:15;3.45;;;1.77;;
13981;SDS011;7065;50.880;5.502;2022-11-06T08:38:40;2.90;;;1.60;;
13981;SDS011;7065;50.880;5.502;2022-11-06T08:41:07;4.80;;;1.80;;
13981;SDS011;7065;50.880;5.502;2022-11-06T08:43:35;3.63;;;1.55;;
13981;SDS011;7065;50.880;5.502;2022-11-06T08:46:02;5.32;;;1.80;;
13981;SDS011;7065;50.880;5.502;2022-11-06T08:48:29;5.60;;;2.00;;
13981;SDS011;7065;50.880;5.502;2022-11-06T08:50:54;2.38;;;1.63;;
13981;SDS011;7065;50.880;5.502;2022-11-06T08:53:20;7.63;;;2.25;;
13981;SDS011;7065;50.880;5.502;2022-11-06T08:55:46;7.10;;;1.85;;
13981;SDS011;7065;50.880;5.502;2022-11-06T08:58:11;3.92;;;1.73;;
13981;SDS011;7065;50.880;5.502;2022-11-06T09:00:38;3.10;;;1.70;;
13981;SDS011;7065;50.880;5.502;2022-11-06T09:03:05;6.03;;;2.10;;
13981;SDS011;7065;50.880;5.502;2022-11-06T09:05:33;6.72;;;2.10;;
13981;SDS011;7065;50.880;5.502;2022-11-06T09:07:59;4.20;;;1.90;;
13981;SDS011;7065;50.880;5.502;2022-11-06T09:10:26;4.43;;;1.88;;
13981;SDS011;7065;50.880;5.502;2022-11-06T09:12:52;5.53;;;1.85;;
13981;SDS011;7065;50.880;5.502;2022-11-06T09:15:18;5.63;;;1.92;;
13981;SDS011;7065;50.880;5.502;2022-11-06T09:17:44;4.70;;;1.70;;
13981;SDS011;7065;50.880;5.502;2022-11-06T09:20:11;5.28;;;1.85;;
13981;SDS011;7065;50.880;5.502;2022-11-06T09:22:38;3.90;;;1.65;;
13981;SDS011;7065;50.880;5.502;2022-11-06T09:25:04;3.63;;;1.92;;
13981;SDS011;7065;50.880;5.502;2022-11-06T09:27:30;6.75;;;1.60;;
13981;SDS011;7065;50.880;5.502;2022-11-06T09:29:56;3.42;;;1.45;;
13981;SDS011;7065;50.880;5.502;2022-11-06T09:32:22;3.00;;;1.40;;
13981;SDS011;7065;50.880;5.502;2022-11-06T09:34:48;3.88;;;1.50;;
13981;SDS011;7065;50.880;5.502;2022-11-06T09:37:14;3.53;;;1.30;;
13981;SDS011;7065;50.880;5.502;2022-11-06T09:39:40;4.72;;;1.70;;
13981;SDS011;7065;50.880;5.502;2022-11-06T09:45:01;6.22;;;1.58;;
13981;SDS011;7065;50.880;5.502;2022-11-06T09:47:37;3.70;;;1.33;;
13981;SDS011;7065;50.880;5.502;2022-11-06T09:50:10;3.63;;;1.60;;
13981;SDS011;7065;50.880;5.502;2022-11-06T09:52:51;2.33;;;1.40;;
13981;SDS011;7065;50.880;5.502;2022-11-06T09:55:28;4.38;;;1.73;;
13981;SDS011;7065;50.880;5.502;2022-11-06T09:57:58;3.78;;;1.52;;
13981;SDS011;7065;50.880;5.502;2022-11-06T10:00:28;6.35;;;2.20;;
13981;SDS011;7065;50.880;5.502;2022-11-06T10:02:56;4.10;;;1.45;;
13981;SDS011;7065;50.880;5.502;2022-11-06T10:05:31;2.90;;;1.45;;
13981;SDS011;7065;50.880;5.502;2022-11-06T10:08:00;5.72;;;1.40;;
13981;SDS011;7065;50.880;5.502;2022-11-06T10:10:30;5.97;;;1.50;;
13981;SDS011;7065;50.880;5.502;2022-11-06T10:15:44;2.97;;;1.30;;
13981;SDS011;7065;50.880;5.502;2022-11-06T10:21:29;3.53;;;1.52;;
13981;SDS011;7065;50.880;5.502;2022-11-06T10:24:10;4.95;;;1.63;;
13981;SDS011;7065;50.880;5.502;2022-11-06T10:26:58;5.95;;;1.98;;
13981;SDS011;7065;50.880;5.502;2022-11-06T10:37:55;2.90;;;1.40;;
13981;SDS011;7065;50.880;5.502;2022-11-06T10:40:25;2.80;;;1.40;;
13981;SDS011;7065;50.880;5.502;2022-11-06T10:43:16;4.38;;;1.60;;
13981;SDS011;7065;50.880;5.502;2022-11-06T10:48:59;3.22;;;1.33;;
13981;SDS011;7065;50.880;5.502;2022-11-06T10:51:31;4.82;;;1.67;;
13981;SDS011;7065;50.880;5.502;2022-11-06T10:57:02;4.07;;;1.30;;
13981;SDS011;7065;50.880;5.502;2022-11-06T10:59:32;5.38;;;1.48;;
13981;SDS011;7065;50.880;5.502;2022-11-06T11:01:59;4.25;;;1.30;;
13981;SDS011;7065;50.880;5.502;2022-11-06T11:04:25;4.63;;;1.30;;
13981;SDS011;7065;50.880;5.502;2022-11-06T11:06:51;2.88;;;1.25;;
13981;SDS011;7065;50.880;5.502;2022-11-06T11:11:58;2.72;;;1.33;;
13981;SDS011;7065;50.880;5.502;2022-11-06T11:14:30;7.07;;;1.50;;
13981;SDS011;7065;50.880;5.502;2022-11-06T11:17:00;4.18;;;1.85;;
13981;SDS011;7065;50.880;5.502;2022-11-06T11:19:32;5.35;;;1.42;;
13981;SDS011;7065;50.880;5.502;2022-11-06T11:22:04;4.07;;;1.42;;
13981;SDS011;7065;50.880;5.502;2022-11-06T11:27:25;3.63;;;1.60;;
13981;SDS011;7065;50.880;5.502;2022-11-06T11:29:52;5.78;;;1.70;;
13981;SDS011;7065;50.880;5.502;2022-11-06T11:32:19;4.18;;;1.83;;
13981;SDS011;7065;50.880;5.502;2022-11-06T11:34:54;4.07;;;1.50;;
13981;SDS011;7065;50.880;5.502;2022-11-06T11:37:23;7.75;;;2.33;;
13981;SDS011;7065;50.880;5.502;2022-11-06T11:39:52;4.03;;;2.00;;
13981;SDS011;7065;50.880;5.502;2022-11-06T11:45:09;2.90;;;1.40;;
13981;SDS011;7065;50.880;5.502;2022-11-06T11:47:46;2.28;;;1.27;;
13981;SDS011;7065;50.880;5.502;2022-11-06T11:52:39;3.95;;;1.85;;
13981;SDS011;7065;50.880;5.502;2022-11-06T11:55:12;3.53;;;1.55;;
13981;SDS011;7065;50.880;5.502;2022-11-06T11:57:43;5.25;;;1.88;;
13981;SDS011;7065;50.880;5.502;2022-11-06T12:00:13;3.53;;;1.63;;
13981;SDS011;7065;50.880;5.502;2022-11-06T12:02:45;4.28;;;2.25;;
13981;SDS011;7065;50.880;5.502;2022-11-06T12:05:27;4.55;;;1.85;;
13981;SDS011;7065;50.880;5.502;2022-11-06T12:07:59;4.63;;;1.38;;
13981;SDS011;7065;50.880;5.502;2022-11-06T12:13:18;5.03;;;1.38;;
13981;SDS011;7065;50.880;5.502;2022-11-06T12:15:48;7.30;;;1.48;;
13981;SDS011;7065;50.880;5.502;2022-11-06T12:18:25;5.55;;;1.20;;
13981;SDS011;7065;50.880;5.502;2022-11-06T12:28:35;7.53;;;1.80;;
13981;SDS011;7065;50.880;5.502;2022-11-06T12:31:13;6.38;;;1.70;;
13981;SDS011;7065;50.880;5.502;2022-11-06T12:33:52;5.18;;;1.73;;
13981;SDS011;7065;50.880;5.502;2022-11-06T12:36:20;2.47;;;1.45;;
13981;SDS011;7065;50.880;5.502;2022-11-06T12:38:52;3.88;;;1.48;;
13981;SDS011;7065;50.880;5.502;2022-11-06T12:41:27;3.42;;;1.73;;
13981;SDS011;7065;50.880;5.502;2022-11-06T12:43:54;4.53;;;1.42;;
13981;SDS011;7065;50.880;5.502;2022-11-06T12:52:08;4.30;;;1.40;;
13981;SDS011;7065;50.880;5.502;2022-11-06T12:55:04;4.03;;;1.60;;
13981;SDS011;7065;50.880;5.502;2022-11-06T12:57:54;2.90;;;1.20;;
13981;SDS011;7065;50.880;5.502;2022-11-06T13:00:31;2.85;;;1.30;;
13981;SDS011;7065;50.880;5.502;2022-11-06T13:13:59;2.97;;;1.10;;
13981;SDS011;7065;50.880;5.502;2022-11-06T13:16:51;6.68;;;1.35;;
13981;SDS011;7065;50.880;5.502;2022-11-06T13:19:40;3.17;;;1.20;;
13981;SDS011;7065;50.880;5.502;2022-11-06T13:26:00;2.13;;;1.23;;
13981;SDS011;7065;50.880;5.502;2022-11-06T13:31:07;3.42;;;1.35;;
13981;SDS011;7065;50.880;5.502;2022-11-06T13:33:49;2.97;;;1.23;;
13981;SDS011;7065;50.880;5.502;2022-11-06T13:36:20;4.13;;;1.10;;
13981;SDS011;7065;50.880;5.502;2022-11-06T13:41:49;2.33;;;1.30;;
13981;SDS011;7065;50.880;5.502;2022-11-06T13:44:17;2.55;;;1.50;;
13981;SDS011;7065;50.880;5.502;2022-11-06T14:04:14;2.25;;;1.48;;
13981;SDS011;7065;50.880;5.502;2022-11-06T14:06:57;2.63;;;1.45;;
13981;SDS011;7065;50.880;5.502;2022-11-06T14:09:26;2.35;;;1.70;;
13981;SDS011;7065;50.880;5.502;2022-11-06T14:11:56;3.80;;;1.48;;
13981;SDS011;7065;50.880;5.502;2022-11-06T14:14:26;5.25;;;2.45;;
13981;SDS011;7065;50.880;5.502;2022-11-06T14:19:37;3.30;;;1.80;;
13981;SDS011;7065;50.880;5.502;2022-11-06T14:24:36;2.97;;;1.95;;
13981;SDS011;7065;50.880;5.502;2022-11-06T14:27:04;3.72;;;2.63;;
13981;SDS011;7065;50.880;5.502;2022-11-06T14:32:35;3.60;;;1.73;;
13981;SDS011;7065;50.880;5.502;2022-11-06T14:37:53;3.53;;;2.35;;
13981;SDS011;7065;50.880;5.502;2022-11-06T14:40:34;3.78;;;2.22;;
13981;SDS011;7065;50.880;5.502;2022-11-06T14:43:36;5.15;;;2.42;;
13981;SDS011;7065;50.880;5.502;2022-11-06T14:48:31;5.18;;;2.05;;
13981;SDS011;7065;50.880;5.502;2022-11-06T14:51:03;3.67;;;2.58;;
13981;SDS011;7065;50.880;5.502;2022-11-06T14:53:54;2.58;;;1.90;;
13981;SDS011;7065;50.880;5.502;2022-11-06T14:56:24;3.53;;;2.45;;
13981;SDS011;7065;50.880;5.502;2022-11-06T14:58:53;3.25;;;2.22;;
13981;SDS011;7065;50.880;5.502;2022-11-06T15:01:28;5.35;;;2.90;;
13981;SDS011;7065;50.880;5.502;2022-11-06T15:03:56;2.72;;;2.53;;
13981;SDS011;7065;50.880;5.502;2022-11-06T15:11:51;3.95;;;2.80;;
13981;SDS011;7065;50.880;5.502;2022-11-06T15:16:50;4.47;;;2.70;;
13981;SDS011;7065;50.880;5.502;2022-11-06T15:19:28;5.18;;;3.65;;
13981;SDS011;7065;50.880;5.502;2022-11-06T15:25:00;4.78;;;3.50;;
13981;SDS011;7065;50.880;5.502;2022-11-06T15:27:37;12.80;;;10.38;;
13981;SDS011;7065;50.880;5.502;2022-11-06T15:30:06;30.15;;;27.33;;
13981;SDS011;7065;50.880;5.502;2022-11-06T15:32:37;28.92;;;26.00;;
13981;SDS011;7065;50.880;5.502;2022-11-06T15:35:13;9.32;;;8.05;;
13981;SDS011;7065;50.880;5.502;2022-11-06T15:37:52;4.78;;;3.95;;
13981;SDS011;7065;50.880;5.502;2022-11-06T15:42:54;3.83;;;3.25;;
13981;SDS011;7065;50.880;5.502;2022-11-06T15:45:25;3.15;;;2.80;;
13981;SDS011;7065;50.880;5.502;2022-11-06T15:47:56;6.70;;;3.38;;
13981;SDS011;7065;50.880;5.502;2022-11-06T15:50:27;3.50;;;3.00;;
13981;SDS011;7065;50.880;5.502;2022-11-06T15:52:54;5.45;;;3.22;;
13981;SDS011;7065;50.880;5.502;2022-11-06T15:58:32;5.22;;;4.30;;
13981;SDS011;7065;50.880;5.502;2022-11-06T16:01:00;9.07;;;3.53;;
13981;SDS011;7065;50.880;5.502;2022-11-06T16:03:30;5.53;;;3.80;;
13981;SDS011;7065;50.880;5.502;2022-11-06T16:06:06;6.53;;;3.15;;
13981;SDS011;7065;50.880;5.502;2022-11-06T16:08:32;3.25;;;2.72;;
13981;SDS011;7065;50.880;5.502;2022-11-06T16:10:58;4.20;;;3.05;;
13981;SDS011;7065;50.880;5.502;2022-11-06T16:13:25;4.50;;;2.65;;
13981;SDS011;7065;50.880;5.502;2022-11-06T16:21:06;3.40;;;3.03;;
13981;SDS011;7065;50.880;5.502;2022-11-06T16:23:37;4.45;;;2.80;;
13981;SDS011;7065;50.880;5.502;2022-11-06T16:26:08;3.00;;;2.72;;
13981;SDS011;7065;50.880;5.502;2022-11-06T16:28:44;4.38;;;3.53;;
13981;SDS011;7065;50.880;5.502;2022-11-06T16:31:17;5.63;;;3.33;;
13981;SDS011;7065;50.880;5.502;2022-11-06T16:33:52;4.68;;;2.63;;
13981;SDS011;7065;50.880;5.502;2022-11-06T16:36:19;4.40;;;3.47;;
13981;SDS011;7065;50.880;5.502;2022-11-06T16:38:45;6.97;;;3.30;;
13981;SDS011;7065;50.880;5.502;2022-11-06T16:41:19;5.18;;;2.28;;
13981;SDS011;7065;50.880;5.502;2022-11-06T16:44:22;2.90;;;2.30;;
13981;SDS011;7065;50.880;5.502;2022-11-06T16:49:35;3.95;;;2.53;;
13981;SDS011;7065;50.880;5.502;2022-11-06T16:54:56;3.47;;;2.58;;
13981;SDS011;7065;50.880;5.502;2022-11-06T16:57:44;2.58;;;2.00;;
13981;SDS011;7065;50.880;5.502;2022-11-06T17:02:45;2.33;;;2.05;;
13981;SDS011;7065;50.880;5.502;2022-11-06T17:05:17;7.22;;;2.10;;
13981;SDS011;7065;50.880;5.502;2022-11-06T17:10:41;4.05;;;1.83;;
13981;SDS011;7065;50.880;5.502;2022-11-06T17:16:04;2.40;;;1.88;;
13981;SDS011;7065;50.880;5.502;2022-11-06T17:18:32;2.92;;;1.75;;
13981;SDS011;7065;50.880;5.502;2022-11-06T17:21:00;4.38;;;2.03;;
13981;SDS011;7065;50.880;5.502;2022-11-06T17:23:28;2.70;;;2.33;;
13981;SDS011;7065;50.880;5.502;2022-11-06T17:25:56;2.35;;;2.15;;
13981;SDS011;7065;50.880;5.502;2022-11-06T17:28:26;2.60;;;2.00;;
13981;SDS011;7065;50.880;5.502;2022-11-06T17:30:52;2.40;;;1.83;;
13981;SDS011;7065;50.880;5.502;2022-11-06T17:33:18;3.40;;;2.17;;
13981;SDS011;7065;50.880;5.502;2022-11-06T17:35:45;3.63;;;2.28;;
13981;SDS011;7065;50.880;5.502;2022-11-06T17:38:12;2.78;;;2.15;;
13981;SDS011;7065;50.880;5.502;2022-11-06T17:40:39;3.00;;;2.15;;
13981;SDS011;7065;50.880;5.502;2022-11-06T17:43:05;4.40;;;2.22;;
13981;SDS011;7065;50.880;5.502;2022-11-06T17:45:31;3.90;;;2.15;;
13981;SDS011;7065;50.880;5.502;2022-11-06T17:47:57;2.80;;;2.15;;
13981;SDS011;7065;50.880;5.502;2022-11-06T17:50:23;3.28;;;2.55;;
13981;SDS011;7065;50.880;5.502;2022-11-06T17:52:48;4.22;;;2.05;;
13981;SDS011;7065;50.880;5.502;2022-11-06T17:55:14;4.28;;;1.85;;
13981;SDS011;7065;50.880;5.502;2022-11-06T17:57:40;3.53;;;2.13;;
13981;SDS011;7065;50.880;5.502;2022-11-06T18:00:06;5.00;;;2.00;;
13981;SDS011;7065;50.880;5.502;2022-11-06T18:02:34;4.72;;;2.10;;
13981;SDS011;7065;50.880;5.502;2022-11-06T18:05:01;2.78;;;2.00;;
13981;SDS011;7065;50.880;5.502;2022-11-06T18:07:27;3.72;;;2.20;;
13981;SDS011;7065;50.880;5.502;2022-11-06T18:09:52;4.22;;;1.95;;
13981;SDS011;7065;50.880;5.502;2022-11-06T18:12:18;2.10;;;1.90;;